createdAt,value
2022-12-05T00:01:23.980Z,8.66
2022-12-05T00:03:53.329Z,8.65
2022-12-05T00:06:22.185Z,8.66
2022-12-05T00:08:50.102Z,8.67
2022-12-05T00:11:20.586Z,8.73
2022-12-05T00:13:48.972Z,8.82
2022-12-05T00:16:18.975Z,8.73
2022-12-05T00:18:49.334Z,8.84
2022-12-05T00:21:25.240Z,8.79
2022-12-05T00:23:54.305Z,8.80
2022-12-05T00:26:22.379Z,8.76
2022-12-05T00:28:50.191Z,8.75
2022-12-05T00:31:20.299Z,8.73
2022-12-05T00:33:49.108Z,8.67
2022-12-05T00:36:21.232Z,8.69
2022-12-05T00:38:48.710Z,8.77
2022-12-05T00:41:27.277Z,8.68
2022-12-05T00:43:56.149Z,8.63
2022-12-05T00:46:25.528Z,8.64
2022-12-05T00:48:54.286Z,8.65
2022-12-05T00:51:30.092Z,8.69
2022-12-05T00:54:06.986Z,8.64
2022-12-05T00:56:35.184Z,8.65
2022-12-05T00:59:03.726Z,8.68
2022-12-05T01:01:34.383Z,8.67
2022-12-05T01:04:23.425Z,8.69
2022-12-05T01:06:56.097Z,8.69
2022-12-05T01:09:24.225Z,8.72
2022-12-05T01:11:51.807Z,8.73
2022-12-05T01:14:22.917Z,8.74
2022-12-05T01:16:52.072Z,8.76
2022-12-05T01:19:23.240Z,8.74
2022-12-05T01:21:51.680Z,8.70
2022-12-05T01:24:20.248Z,8.70
2022-12-05T01:26:48.317Z,8.71
2022-12-05T01:29:19.224Z,8.74
2022-12-05T01:31:46.723Z,8.72
2022-12-05T01:34:16.204Z,8.73
2022-12-05T01:36:44.342Z,8.66
2022-12-05T01:39:13.537Z,8.73
2022-12-05T01:41:49.644Z,8.71
2022-12-05T01:44:16.923Z,8.73
2022-12-05T01:46:47.687Z,8.72
2022-12-05T01:49:25.749Z,8.72
2022-12-05T01:51:58.535Z,8.76
2022-12-05T01:54:25.921Z,8.72
2022-12-05T01:57:00.935Z,8.67
2022-12-05T01:59:35.921Z,8.75
2022-12-05T02:02:06.079Z,8.75
2022-12-05T02:04:37.596Z,8.73
2022-12-05T02:07:05.041Z,8.71
2022-12-05T02:09:32.414Z,8.67
2022-12-05T02:12:04.301Z,8.64
2022-12-05T02:15:05.841Z,8.60
2022-12-05T02:18:11.805Z,8.56
2022-12-05T02:21:05.336Z,8.62
2022-12-05T02:24:03.514Z,8.53
2022-12-05T02:26:53.263Z,8.55
2022-12-05T02:29:49.037Z,8.56
2022-12-05T02:32:29.661Z,8.67
2022-12-05T02:35:24.340Z,8.64
2022-12-05T02:38:15.237Z,8.64
2022-12-05T02:40:56.403Z,8.64
2022-12-05T02:43:32.829Z,8.66
2022-12-05T02:46:07.091Z,8.65
2022-12-05T02:48:37.269Z,8.65
2022-12-05T02:51:07.523Z,8.64
2022-12-05T02:53:37.381Z,8.65
2022-12-05T02:56:06.446Z,8.67
2022-12-05T02:58:48.407Z,8.64
2022-12-05T03:01:16.238Z,8.64
2022-12-05T03:03:44.487Z,8.60
2022-12-05T03:06:16.180Z,8.63
2022-12-05T03:09:14.997Z,8.63
2022-12-05T03:11:47.416Z,8.61
2022-12-05T03:14:22.838Z,8.63
2022-12-05T03:16:54.007Z,8.64
2022-12-05T03:19:41.032Z,8.64
2022-12-05T03:22:15.145Z,8.66
2022-12-05T03:24:43.655Z,8.65
2022-12-05T03:27:25.755Z,8.64
2022-12-05T03:29:55.894Z,8.69
2022-12-05T03:32:36.889Z,8.68
2022-12-05T03:35:13.448Z,8.63
2022-12-05T03:37:55.690Z,8.66
2022-12-05T03:40:49.149Z,8.65
2022-12-05T03:43:44.156Z,8.57
2022-12-05T03:46:32.900Z,8.53
2022-12-05T03:49:33.859Z,8.56
2022-12-05T03:52:01.746Z,8.71
2022-12-05T03:54:44.065Z,8.71
2022-12-05T03:57:23.344Z,8.64
2022-12-05T03:59:59.372Z,8.66
2022-12-05T04:02:33.610Z,8.64
2022-12-05T04:05:16.512Z,8.64
2022-12-05T04:07:46.255Z,8.52
2022-12-05T04:10:19.237Z,8.56
2022-12-05T04:12:47.084Z,8.63
2022-12-05T04:15:23.267Z,8.68
2022-12-05T04:17:56.978Z,8.71
2022-12-05T04:20:51.143Z,8.71
2022-12-05T04:23:18.635Z,8.74
2022-12-05T04:26:24.384Z,8.76
2022-12-05T04:29:00.198Z,8.72
2022-12-05T04:31:35.679Z,8.72
2022-12-05T04:34:07.154Z,8.73
2022-12-05T04:36:42.311Z,8.72
2022-12-05T04:39:19.969Z,8.76
2022-12-05T04:41:53.380Z,8.77
2022-12-05T04:44:27.669Z,8.78
2022-12-05T04:47:02.144Z,8.79
2022-12-05T04:49:32.642Z,8.84
2022-12-05T04:52:05.751Z,8.82
2022-12-05T04:54:46.066Z,8.78
2022-12-05T04:57:30.859Z,8.87
2022-12-05T04:59:58.522Z,8.81
2022-12-05T05:02:48.215Z,8.72
2022-12-05T05:05:20.735Z,8.78
2022-12-05T05:07:53.254Z,8.79
2022-12-05T05:10:37.756Z,8.76
2022-12-05T05:13:05.124Z,8.76
2022-12-05T05:15:32.468Z,8.81
2022-12-05T05:17:59.812Z,8.83
2022-12-05T05:20:27.560Z,8.84
2022-12-05T05:22:58.486Z,8.82
2022-12-05T05:25:26.136Z,8.84
2022-12-05T05:27:55.767Z,8.85
2022-12-05T05:30:24.958Z,8.88
2022-12-05T05:32:52.757Z,8.87
2022-12-05T05:35:23.245Z,8.88
2022-12-05T05:37:50.749Z,8.86
2022-12-05T05:40:18.378Z,8.85
2022-12-05T05:42:48.060Z,8.83
2022-12-05T05:45:16.132Z,8.82
2022-12-05T05:47:44.021Z,8.83
2022-12-05T05:50:17.799Z,8.81
2022-12-05T05:52:45.417Z,8.81
2022-12-05T05:55:12.834Z,8.81
2022-12-05T05:57:40.160Z,8.81
2022-12-05T06:00:09.717Z,8.86
2022-12-05T06:02:37.605Z,8.86
2022-12-05T06:05:05.468Z,8.81
2022-12-05T06:07:32.828Z,8.82
2022-12-05T06:10:00.544Z,8.78
2022-12-05T06:12:28.217Z,8.68
2022-12-05T06:14:55.658Z,8.70
2022-12-05T06:17:23.064Z,8.63
2022-12-05T06:19:50.434Z,8.63
2022-12-05T06:22:18.034Z,8.63
2022-12-05T06:24:45.388Z,8.57
2022-12-05T06:27:12.785Z,8.56
2022-12-05T06:29:40.248Z,8.54
2022-12-05T06:32:10.089Z,8.53
2022-12-05T06:34:37.490Z,8.54
2022-12-05T06:37:04.940Z,8.53
2022-12-05T06:39:32.525Z,8.52
2022-12-05T06:41:59.970Z,8.55
2022-12-05T06:44:28.727Z,8.56
2022-12-05T06:46:56.325Z,8.57
2022-12-05T06:49:31.609Z,8.60
2022-12-05T06:52:01.209Z,8.60
2022-12-05T06:54:28.532Z,8.56
2022-12-05T06:56:58.650Z,8.55
2022-12-05T06:59:25.967Z,8.59
2022-12-05T07:01:53.390Z,8.61
2022-12-05T07:04:25.892Z,8.63
2022-12-05T07:06:55.857Z,8.67
2022-12-05T07:09:44.386Z,8.69
2022-12-05T07:12:12.710Z,8.75
2022-12-05T07:14:47.571Z,8.83
2022-12-05T07:17:17.110Z,8.91
2022-12-05T07:19:44.714Z,8.97
2022-12-05T07:22:15.704Z,9.10
2022-12-05T07:24:46.551Z,9.25
2022-12-05T07:27:15.301Z,9.29
2022-12-05T07:29:42.718Z,9.32
2022-12-05T07:32:10.150Z,9.30
2022-12-05T07:34:38.926Z,9.32
2022-12-05T07:37:06.393Z,9.34
2022-12-05T07:39:33.833Z,9.33
2022-12-05T07:42:01.182Z,9.29
2022-12-05T07:44:28.544Z,9.31
2022-12-05T07:46:55.833Z,9.37
2022-12-05T07:49:23.202Z,9.43
2022-12-05T07:51:50.706Z,9.42
2022-12-05T07:54:18.105Z,9.45
2022-12-05T07:56:47.942Z,9.41
2022-12-05T07:59:15.577Z,9.54
2022-12-05T08:01:43.010Z,9.52
2022-12-05T08:04:15.072Z,9.48
2022-12-05T08:06:43.489Z,9.44
2022-12-05T08:09:10.936Z,9.53
2022-12-05T08:11:38.241Z,9.51
2022-12-05T08:14:06.582Z,9.49
2022-12-05T08:16:34.027Z,9.48
2022-12-05T08:19:04.943Z,9.45
2022-12-05T08:21:35.191Z,9.51
2022-12-05T08:24:06.067Z,9.55
2022-12-05T08:26:35.417Z,9.61
2022-12-05T08:29:06.723Z,9.61
2022-12-05T08:31:36.970Z,9.62
2022-12-05T08:34:04.382Z,9.64
2022-12-05T08:36:32.321Z,9.68
2022-12-05T08:39:03.106Z,9.67
2022-12-05T08:41:31.134Z,9.75
2022-12-05T08:44:06.051Z,9.85
2022-12-05T08:46:36.022Z,9.83
2022-12-05T08:49:05.068Z,9.88
2022-12-05T08:51:32.445Z,9.85
2022-12-05T08:54:04.265Z,9.81
2022-12-05T08:56:33.126Z,9.86
2022-12-05T08:59:05.851Z,9.97
2022-12-05T09:01:37.180Z,9.98
2022-12-05T09:04:05.703Z,9.93
2022-12-05T09:06:34.731Z,9.82
2022-12-05T09:09:06.147Z,9.79
2022-12-05T09:11:36.487Z,9.75
2022-12-05T09:14:05.580Z,9.78
2022-12-05T09:16:38.335Z,9.84
2022-12-05T09:19:18.164Z,9.90
2022-12-05T09:21:45.561Z,9.92
2022-12-05T09:24:13.509Z,9.93
2022-12-05T09:26:41.786Z,9.94
2022-12-05T09:29:16.268Z,9.93
2022-12-05T09:31:46.870Z,9.95
2022-12-05T09:34:15.392Z,9.93
2022-12-05T09:36:43.232Z,9.93
2022-12-05T09:39:11.336Z,9.97
2022-12-05T09:42:07.919Z,10.24
2022-12-05T09:44:46.836Z,10.45
2022-12-05T09:47:19.869Z,10.55
2022-12-05T09:50:00.018Z,10.62
2022-12-05T09:52:39.863Z,10.59
2022-12-05T09:55:16.394Z,10.59
2022-12-05T09:57:55.169Z,10.78
2022-12-05T10:00:22.966Z,10.74
2022-12-05T10:03:35.898Z,10.82
2022-12-05T10:06:16.404Z,10.78
2022-12-05T10:09:05.809Z,10.73
2022-12-05T10:11:38.870Z,10.72
2022-12-05T10:14:14.708Z,10.77
2022-12-05T10:16:51.644Z,10.69
2022-12-05T10:19:23.867Z,10.71
2022-12-05T10:21:56.828Z,10.62
2022-12-05T10:24:32.125Z,10.52
2022-12-05T10:27:04.768Z,10.45
2022-12-05T10:29:34.952Z,10.40
2022-12-05T10:32:13.185Z,10.38
2022-12-05T10:34:43.076Z,10.30
2022-12-05T10:37:15.822Z,10.30
2022-12-05T10:39:44.258Z,10.29
2022-12-05T10:42:19.470Z,10.29
2022-12-05T10:44:58.216Z,10.23
2022-12-05T10:47:26.004Z,10.22
2022-12-05T10:49:56.010Z,10.24
2022-12-05T10:52:24.085Z,10.27
2022-12-05T10:55:06.567Z,10.26
2022-12-05T10:57:33.910Z,10.41
2022-12-05T11:00:13.868Z,10.70
2022-12-05T11:02:43.035Z,11.10
2022-12-05T11:05:13.913Z,11.45
2022-12-05T11:07:44.185Z,11.30
2022-12-05T11:10:26.912Z,11.18
2022-12-05T11:12:57.888Z,11.13
2022-12-05T11:15:28.958Z,11.49
2022-12-05T11:18:17.398Z,11.57
2022-12-05T11:20:44.803Z,11.47
2022-12-05T11:23:27.653Z,11.24
2022-12-05T11:25:57.361Z,11.14
2022-12-05T11:28:36.840Z,11.15
2022-12-05T11:31:16.407Z,11.09
2022-12-05T11:33:43.824Z,11.09
2022-12-05T11:36:11.112Z,10.96
2022-12-05T11:38:41.230Z,10.88
2022-12-05T11:41:18.238Z,11.02
2022-12-05T11:44:00.472Z,11.02
2022-12-05T11:46:58.539Z,11.30
2022-12-05T11:49:44.358Z,11.63
2022-12-05T11:52:14.458Z,11.65
2022-12-05T11:55:23.371Z,11.68
2022-12-05T11:57:52.435Z,11.74
2022-12-05T12:00:24.881Z,11.64
2022-12-05T12:02:58.116Z,11.60
2022-12-05T12:05:39.103Z,11.51
2022-12-05T12:08:29.626Z,11.60
2022-12-05T12:11:29.953Z,11.39
2022-12-05T12:14:06.110Z,11.38
2022-12-05T12:16:59.371Z,11.40
2022-12-05T12:19:45.112Z,11.52
2022-12-05T12:22:43.122Z,11.67
2022-12-05T12:25:19.213Z,11.80
2022-12-05T12:28:14.849Z,11.77
2022-12-05T12:31:17.473Z,11.70
2022-12-05T12:33:59.449Z,11.71
2022-12-05T12:36:45.693Z,11.62
2022-12-05T12:39:30.971Z,11.46
2022-12-05T12:42:35.615Z,11.39
2022-12-05T12:45:24.821Z,11.44
2022-12-05T12:47:55.112Z,11.46
2022-12-05T12:50:29.591Z,11.39
2022-12-05T12:53:27.611Z,11.38
2022-12-05T12:56:19.665Z,11.48
2022-12-05T12:59:03.129Z,11.32
2022-12-05T13:01:55.127Z,11.34
2022-12-05T13:04:30.146Z,11.28
2022-12-05T13:07:03.948Z,11.31
2022-12-05T13:09:40.358Z,11.05
2022-12-05T13:12:15.432Z,11.00
2022-12-05T13:14:52.379Z,10.95
2022-12-05T13:17:22.769Z,10.93
2022-12-05T13:19:52.466Z,11.04
2022-12-05T13:22:26.261Z,10.97
2022-12-05T13:24:55.165Z,10.88
2022-12-05T13:27:27.486Z,11.25
2022-12-05T13:30:01.232Z,11.29
2022-12-05T13:32:43.909Z,11.19
2022-12-05T13:35:55.193Z,11.06
2022-12-05T13:38:49.950Z,10.95
2022-12-05T13:41:36.304Z,10.96
2022-12-05T13:44:12.642Z,10.79
2022-12-05T13:46:43.190Z,10.88
2022-12-05T13:49:26.101Z,10.85
2022-12-05T13:51:53.838Z,10.81
2022-12-05T13:54:27.874Z,10.82
2022-12-05T13:57:05.239Z,10.78
2022-12-05T14:00:00.497Z,10.95
2022-12-05T14:02:46.483Z,10.99
2022-12-05T14:05:13.983Z,10.92
2022-12-05T14:07:48.175Z,10.88
2022-12-05T14:10:20.974Z,10.82
2022-12-05T14:12:54.017Z,10.75
2022-12-05T14:15:24.120Z,10.78
2022-12-05T14:17:58.699Z,10.82
2022-12-05T14:20:52.384Z,10.78
2022-12-05T14:23:44.422Z,10.73
2022-12-05T14:26:49.444Z,10.74
2022-12-05T14:29:37.313Z,10.75
2022-12-05T14:32:04.930Z,10.79
2022-12-05T14:34:36.925Z,10.76
2022-12-05T14:37:26.208Z,10.68
2022-12-05T14:39:58.407Z,10.69
2022-12-05T14:42:36.073Z,10.67
2022-12-05T14:45:42.288Z,10.68
2022-12-05T14:48:15.616Z,10.68
2022-12-05T14:50:46.269Z,10.66
2022-12-05T14:53:34.596Z,10.67
2022-12-05T14:56:25.046Z,10.63
2022-12-05T14:59:02.076Z,10.57
2022-12-05T15:01:50.324Z,10.66
2022-12-05T15:04:24.273Z,10.68
2022-12-05T15:07:35.630Z,10.61
2022-12-05T15:10:23.502Z,10.63
2022-12-05T15:13:05.263Z,10.47
2022-12-05T15:15:37.593Z,10.46
2022-12-05T15:18:27.457Z,10.36
2022-12-05T15:20:59.203Z,10.33
2022-12-05T15:23:48.417Z,10.31
2022-12-05T15:26:47.602Z,10.38
2022-12-05T15:29:23.817Z,10.32
2022-12-05T15:31:53.217Z,10.28
2022-12-05T15:34:44.822Z,10.34
2022-12-05T15:37:44.167Z,10.32
2022-12-05T15:40:17.593Z,10.28
2022-12-05T15:42:47.207Z,10.26
2022-12-05T15:45:17.459Z,10.23
2022-12-05T15:47:47.703Z,10.25
2022-12-05T15:50:17.060Z,10.19
2022-12-05T15:52:51.401Z,10.29
2022-12-05T15:55:27.784Z,10.26
2022-12-05T15:58:06.874Z,10.19
2022-12-05T16:00:40.883Z,10.16
2022-12-05T16:03:17.869Z,10.19
2022-12-05T16:05:57.913Z,10.20
2022-12-05T16:08:30.002Z,10.17
2022-12-05T16:10:57.423Z,10.20
2022-12-05T16:13:27.131Z,10.25
2022-12-05T16:15:57.641Z,10.21
2022-12-05T16:18:31.140Z,10.26
2022-12-05T16:20:59.009Z,10.19
2022-12-05T16:23:32.917Z,10.21
2022-12-05T16:26:12.546Z,10.09
2022-12-05T16:28:39.973Z,10.12
2022-12-05T16:31:08.254Z,9.97
2022-12-05T16:33:38.964Z,10.15
2022-12-05T16:36:14.501Z,10.13
2022-12-05T16:38:43.374Z,10.13
2022-12-05T16:41:11.969Z,10.07
2022-12-05T16:43:39.319Z,10.02
2022-12-05T16:46:13.269Z,9.98
2022-12-05T16:48:45.584Z,10.03
2022-12-05T16:51:18.259Z,10.00
2022-12-05T16:53:51.014Z,9.98
2022-12-05T16:56:25.278Z,10.05
2022-12-05T16:58:53.303Z,10.07
2022-12-05T17:01:27.301Z,10.06
2022-12-05T17:03:56.153Z,10.07
2022-12-05T17:06:25.891Z,10.01
2022-12-05T17:08:54.717Z,10.11
2022-12-05T17:11:29.620Z,10.06
2022-12-05T17:13:58.810Z,9.97
2022-12-05T17:16:27.080Z,10.09
2022-12-05T17:18:54.877Z,10.00
2022-12-05T17:21:25.744Z,10.02
2022-12-05T17:23:53.166Z,10.01
2022-12-05T17:26:24.948Z,9.94
2022-12-05T17:28:52.861Z,9.95
2022-12-05T17:31:22.935Z,9.90
2022-12-05T17:33:52.806Z,9.91
2022-12-05T17:36:21.215Z,9.88
2022-12-05T17:38:49.089Z,9.85
2022-12-05T17:41:25.273Z,9.96
2022-12-05T17:43:52.836Z,10.04
2022-12-05T17:46:22.808Z,10.04
2022-12-05T17:48:51.722Z,10.15
2022-12-05T17:51:20.275Z,10.20
2022-12-05T17:53:47.811Z,10.04
2022-12-05T17:56:18.307Z,9.96
2022-12-05T17:58:46.181Z,9.94
2022-12-05T18:01:19.642Z,9.90
2022-12-05T18:03:48.799Z,9.87
2022-12-05T18:06:16.992Z,9.88
2022-12-05T18:08:45.559Z,9.87
2022-12-05T18:11:14.834Z,9.95
2022-12-05T18:13:42.326Z,9.93
2022-12-05T18:16:09.905Z,9.98
2022-12-05T18:18:37.321Z,9.89
2022-12-05T18:21:12.458Z,9.84
2022-12-05T18:23:40.741Z,9.86
2022-12-05T18:26:09.830Z,9.82
2022-12-05T18:28:38.826Z,9.88
2022-12-05T18:31:12.412Z,9.87
2022-12-05T18:33:40.281Z,9.85
2022-12-05T18:36:17.406Z,9.81
2022-12-05T18:38:53.268Z,9.77
2022-12-05T18:41:23.647Z,9.88
2022-12-05T18:43:51.286Z,9.82
2022-12-05T18:46:19.326Z,9.88
2022-12-05T18:48:47.996Z,9.87
2022-12-05T18:51:19.203Z,9.84
2022-12-05T18:53:52.652Z,9.87
2022-12-05T18:56:29.412Z,9.90
2022-12-05T18:59:00.199Z,9.92
2022-12-05T19:01:29.635Z,9.90
2022-12-05T19:03:58.256Z,9.91
2022-12-05T19:06:29.869Z,9.86
2022-12-05T19:09:00.145Z,9.74
2022-12-05T19:11:28.856Z,9.71
2022-12-05T19:13:58.433Z,9.74
2022-12-05T19:16:27.035Z,9.64
2022-12-05T19:18:58.366Z,9.62
2022-12-05T19:21:27.722Z,9.52
2022-12-05T19:23:55.748Z,9.45
2022-12-05T19:26:23.753Z,9.49
2022-12-05T19:28:51.503Z,9.50
2022-12-05T19:31:23.591Z,9.44
2022-12-05T19:33:51.857Z,9.49
2022-12-05T19:36:22.232Z,9.59
2022-12-05T19:38:51.489Z,9.52
2022-12-05T19:41:27.450Z,9.64
2022-12-05T19:44:00.463Z,9.37
2022-12-05T19:46:29.866Z,9.43
2022-12-05T19:49:15.788Z,9.38
2022-12-05T19:52:01.622Z,9.25
2022-12-05T19:54:30.161Z,9.08
2022-12-05T19:57:00.559Z,9.16
2022-12-05T19:59:28.033Z,9.02
2022-12-05T20:01:55.533Z,9.02
2022-12-05T20:04:23.017Z,9.05
2022-12-05T20:06:50.480Z,9.00
2022-12-05T20:09:20.605Z,8.91
2022-12-05T20:11:55.196Z,8.87
2022-12-05T20:14:25.695Z,8.87
2022-12-05T20:16:53.619Z,8.93
2022-12-05T20:19:21.915Z,8.82
2022-12-05T20:21:49.541Z,8.79
2022-12-05T20:24:16.946Z,8.84
2022-12-05T20:26:44.931Z,8.79
2022-12-05T20:29:12.677Z,8.74
2022-12-05T20:31:41.917Z,8.77
2022-12-05T20:34:11.596Z,8.73
2022-12-05T20:36:38.909Z,8.78
2022-12-05T20:39:08.728Z,8.79
2022-12-05T20:41:36.204Z,8.86
2022-12-05T20:44:08.900Z,8.81
2022-12-05T20:46:36.887Z,8.90
2022-12-05T20:49:04.398Z,8.72
2022-12-05T20:51:34.041Z,8.84
2022-12-05T20:54:03.869Z,8.95
2022-12-05T20:56:32.831Z,8.99
2022-12-05T20:59:02.847Z,9.05
2022-12-05T21:01:31.954Z,9.02
2022-12-05T21:03:59.609Z,9.07
2022-12-05T21:06:46.595Z,9.01
2022-12-05T21:09:26.591Z,8.94
2022-12-05T21:11:55.416Z,9.01
2022-12-05T21:14:24.065Z,8.94
2022-12-05T21:16:53.243Z,9.03
2022-12-05T21:19:21.389Z,8.91
2022-12-05T21:21:49.799Z,8.87
2022-12-05T21:24:17.132Z,8.82
2022-12-05T21:26:44.539Z,8.76
2022-12-05T21:29:11.902Z,8.88
2022-12-05T21:31:44.014Z,8.92
2022-12-05T21:34:19.612Z,8.74
2022-12-05T21:36:47.733Z,8.72
2022-12-05T21:39:15.950Z,8.76
2022-12-05T21:41:43.275Z,8.72
2022-12-05T21:44:10.724Z,8.84
2022-12-05T21:46:38.289Z,8.91
2022-12-05T21:49:05.761Z,8.76
2022-12-05T21:51:33.123Z,8.65
2022-12-05T21:54:00.500Z,8.63
2022-12-05T21:56:28.564Z,8.56
2022-12-05T21:58:57.369Z,8.41
2022-12-05T22:01:27.729Z,8.31
2022-12-05T22:04:00.918Z,8.31
2022-12-05T22:06:34.022Z,8.40
2022-12-05T22:09:01.862Z,8.34
2022-12-05T22:11:29.258Z,8.40
2022-12-05T22:13:56.637Z,8.36
2022-12-05T22:16:30.655Z,8.37
2022-12-05T22:19:00.191Z,8.39
2022-12-05T22:21:28.001Z,8.29
2022-12-05T22:23:55.606Z,8.30
2022-12-05T22:26:25.277Z,8.21
2022-12-05T22:28:54.228Z,8.21
2022-12-05T22:31:22.997Z,8.09
2022-12-05T22:33:51.036Z,8.05
2022-12-05T22:36:19.671Z,8.02
2022-12-05T22:38:48.115Z,8.02
2022-12-05T22:41:20.129Z,8.10
2022-12-05T22:43:49.273Z,8.13
2022-12-05T22:46:19.046Z,8.03
2022-12-05T22:48:48.265Z,8.11
2022-12-05T22:51:16.832Z,8.08
2022-12-05T22:53:44.796Z,8.21
2022-12-05T22:56:15.071Z,8.11
2022-12-05T22:58:43.476Z,8.00
2022-12-05T23:01:13.361Z,8.03
2022-12-05T23:03:41.898Z,8.07
2022-12-05T23:06:11.918Z,8.11
2022-12-05T23:08:41.433Z,7.96
2022-12-05T23:11:09.692Z,7.85
2022-12-05T23:13:38.194Z,7.90
2022-12-05T23:16:07.664Z,8.02
2022-12-05T23:18:46.565Z,7.88
2022-12-05T23:21:16.712Z,7.86
2022-12-05T23:23:44.890Z,7.89
2022-12-05T23:26:12.849Z,7.90
2022-12-05T23:28:40.294Z,7.86
2022-12-05T23:31:09.795Z,7.76
2022-12-05T23:33:37.774Z,7.83
2022-12-05T23:36:05.669Z,7.77
2022-12-05T23:38:34.728Z,7.81
2022-12-05T23:41:07.913Z,7.70
2022-12-05T23:43:36.631Z,7.64
2022-12-05T23:46:05.477Z,7.58
2022-12-05T23:48:33.427Z,7.77
2022-12-05T23:51:04.354Z,7.69
2022-12-05T23:53:33.758Z,7.74
2022-12-05T23:56:15.659Z,7.55
2022-12-05T23:58:43.850Z,7.53
